createdAt,value
2022-10-19T00:01:24.609Z,103.33
2022-10-19T00:03:54.938Z,95.90
2022-10-19T00:06:26.257Z,89.20
2022-10-19T00:08:55.839Z,83.23
2022-10-19T00:11:24.985Z,77.07
2022-10-19T00:13:54.308Z,93.20
2022-10-19T00:16:25.305Z,106.00
2022-10-19T00:18:56.888Z,102.70
2022-10-19T00:21:25.469Z,100.80
2022-10-19T00:23:54.496Z,84.43
2022-10-19T00:26:23.155Z,81.33
2022-10-19T00:28:53.907Z,87.13
2022-10-19T00:31:24.249Z,92.27
2022-10-19T00:33:53.124Z,92.73
2022-10-19T00:36:24.595Z,85.23
2022-10-19T00:38:54.115Z,93.93
2022-10-19T00:41:23.824Z,74.23
2022-10-19T00:43:54.881Z,87.43
2022-10-19T00:46:24.833Z,58.07
2022-10-19T00:48:55.833Z,75.50
2022-10-19T00:51:45.993Z,70.77
2022-10-19T00:54:15.000Z,78.23
2022-10-19T00:56:45.683Z,67.67
2022-10-19T00:59:17.164Z,80.63
2022-10-19T01:01:48.088Z,70.67
2022-10-19T01:04:17.302Z,67.23
2022-10-19T01:06:45.873Z,73.93
2022-10-19T01:09:14.387Z,68.17
2022-10-19T01:11:51.942Z,50.30
2022-10-19T01:14:32.068Z,48.17
2022-10-19T01:17:12.150Z,50.93
2022-10-19T01:20:10.000Z,44.53
2022-10-19T01:22:54.048Z,47.27
2022-10-19T01:25:29.982Z,61.20
2022-10-19T01:28:19.129Z,60.30
2022-10-19T01:30:54.204Z,55.73
2022-10-19T01:33:32.812Z,56.80
2022-10-19T01:36:10.282Z,40.93
2022-10-19T01:38:47.130Z,44.30
2022-10-19T01:41:20.627Z,45.13
2022-10-19T01:43:55.765Z,63.17
2022-10-19T01:46:31.190Z,42.40
2022-10-19T01:49:04.285Z,38.00
2022-10-19T01:51:35.955Z,36.97
2022-10-19T01:54:12.110Z,57.03
2022-10-19T01:56:43.737Z,40.97
2022-10-19T01:59:14.396Z,47.97
2022-10-19T02:01:47.426Z,44.50
2022-10-19T02:04:19.703Z,33.80
2022-10-19T02:06:48.320Z,54.30
2022-10-19T02:09:20.125Z,59.50
2022-10-19T02:11:54.698Z,45.70
2022-10-19T02:14:28.981Z,50.93
2022-10-19T02:17:03.042Z,44.53
2022-10-19T02:19:31.530Z,37.57
2022-10-19T02:22:00.877Z,44.33
2022-10-19T02:24:29.328Z,43.07
2022-10-19T02:26:58.532Z,46.53
2022-10-19T02:29:27.424Z,41.93
2022-10-19T02:31:55.965Z,34.60
2022-10-19T02:34:25.854Z,34.53
2022-10-19T02:36:54.668Z,33.73
2022-10-19T02:39:23.471Z,43.93
2022-10-19T02:41:56.533Z,34.00
2022-10-19T02:44:28.198Z,35.47
2022-10-19T02:47:01.865Z,40.40
2022-10-19T02:49:35.163Z,30.10
2022-10-19T02:52:05.337Z,45.00
2022-10-19T02:54:34.513Z,42.03
2022-10-19T02:57:04.152Z,39.00
2022-10-19T02:59:32.610Z,41.87
2022-10-19T03:02:01.167Z,52.80
2022-10-19T03:04:31.029Z,39.83
2022-10-19T03:06:59.537Z,42.20
2022-10-19T03:09:28.024Z,44.33
2022-10-19T03:11:57.360Z,53.40
2022-10-19T03:14:25.864Z,69.63
2022-10-19T03:16:54.358Z,55.03
2022-10-19T03:19:22.856Z,76.83
2022-10-19T03:21:52.980Z,60.07
2022-10-19T03:24:21.444Z,52.43
2022-10-19T03:26:50.315Z,64.10
2022-10-19T03:29:18.797Z,43.60
2022-10-19T03:31:47.240Z,70.57
2022-10-19T03:34:15.705Z,57.33
2022-10-19T03:36:44.152Z,68.50
2022-10-19T03:39:16.006Z,57.97
2022-10-19T03:41:44.523Z,49.07
2022-10-19T03:44:13.287Z,57.60
2022-10-19T03:46:42.341Z,57.93
2022-10-19T03:49:11.175Z,64.07
2022-10-19T03:51:39.647Z,70.43
2022-10-19T03:54:12.579Z,56.40
2022-10-19T03:56:43.189Z,58.70
2022-10-19T03:59:15.211Z,73.90
2022-10-19T04:01:46.235Z,47.57
2022-10-19T04:04:18.176Z,68.27
2022-10-19T04:06:48.868Z,54.43
2022-10-19T04:09:19.969Z,71.37
2022-10-19T04:11:50.732Z,59.83
2022-10-19T04:14:31.824Z,50.80
2022-10-19T04:17:02.050Z,64.47
2022-10-19T04:19:31.611Z,49.43
2022-10-19T04:22:00.360Z,55.47
2022-10-19T04:24:29.249Z,52.93
2022-10-19T04:26:59.062Z,47.20
2022-10-19T04:29:30.187Z,57.07
2022-10-19T04:31:59.522Z,47.20
2022-10-19T04:34:28.014Z,41.60
2022-10-19T04:36:59.230Z,52.43
2022-10-19T04:39:27.811Z,43.60
2022-10-19T04:41:56.405Z,52.00
2022-10-19T04:44:26.351Z,60.63
2022-10-19T04:46:54.805Z,50.03
2022-10-19T04:49:23.308Z,45.70
2022-10-19T04:51:51.813Z,54.93
2022-10-19T04:54:20.315Z,43.00
2022-10-19T04:56:48.793Z,41.23
2022-10-19T04:59:17.281Z,70.07
2022-10-19T05:01:47.499Z,46.00
2022-10-19T05:04:16.085Z,54.47
2022-10-19T05:06:44.560Z,48.20
2022-10-19T05:09:13.141Z,80.80
2022-10-19T05:11:41.677Z,54.97
2022-10-19T05:14:10.126Z,61.80
2022-10-19T05:16:38.705Z,45.60
2022-10-19T05:19:08.587Z,44.57
2022-10-19T05:21:37.073Z,41.00
2022-10-19T05:24:05.701Z,42.27
2022-10-19T05:26:34.184Z,42.73
2022-10-19T05:29:04.521Z,48.47
2022-10-19T05:31:35.029Z,49.40
2022-10-19T05:34:04.426Z,46.83
2022-10-19T05:36:36.815Z,51.83
2022-10-19T05:39:07.538Z,46.73
2022-10-19T05:41:36.287Z,44.00
2022-10-19T05:44:05.883Z,37.33
2022-10-19T05:46:35.196Z,54.33
2022-10-19T05:49:03.826Z,47.80
2022-10-19T05:51:33.661Z,63.27
2022-10-19T05:54:02.198Z,39.97
2022-10-19T05:56:32.334Z,48.67
2022-10-19T05:59:03.485Z,43.90
2022-10-19T06:01:32.806Z,38.27
2022-10-19T06:04:02.708Z,41.50
2022-10-19T06:06:31.744Z,33.90
2022-10-19T06:09:01.885Z,38.30
2022-10-19T06:11:33.908Z,36.83
2022-10-19T06:14:04.142Z,29.50
2022-10-19T06:16:33.959Z,46.77
2022-10-19T06:19:02.525Z,31.87
2022-10-19T06:21:33.203Z,32.93
2022-10-19T06:24:04.986Z,35.67
2022-10-19T06:26:35.126Z,33.80
2022-10-19T06:29:05.014Z,25.33
2022-10-19T06:31:34.997Z,43.53
2022-10-19T06:34:03.897Z,45.90
2022-10-19T06:36:33.658Z,33.90
2022-10-19T06:39:03.640Z,27.90
2022-10-19T06:41:34.237Z,35.47
2022-10-19T06:44:02.767Z,21.67
2022-10-19T06:46:32.286Z,37.33
2022-10-19T06:49:02.641Z,33.27
2022-10-19T06:51:34.151Z,35.40
2022-10-19T06:54:04.031Z,22.03
2022-10-19T06:56:32.551Z,22.63
2022-10-19T06:59:01.035Z,24.10
2022-10-19T07:01:29.579Z,39.93
2022-10-19T07:03:58.110Z,20.70
2022-10-19T07:06:29.101Z,24.00
2022-10-19T07:08:57.567Z,21.47
2022-10-19T07:11:27.405Z,23.77
2022-10-19T07:13:56.158Z,29.20
2022-10-19T07:16:24.680Z,15.57
2022-10-19T07:18:54.379Z,17.63
2022-10-19T07:21:24.213Z,11.80
2022-10-19T07:23:52.729Z,13.03
2022-10-19T07:26:23.949Z,16.80
2022-10-19T07:28:54.269Z,22.90
2022-10-19T07:31:24.336Z,18.57
2022-10-19T07:33:54.847Z,24.40
2022-10-19T07:36:25.755Z,18.00
2022-10-19T07:38:54.555Z,14.20
2022-10-19T07:41:25.045Z,15.93
2022-10-19T07:43:57.666Z,14.50
2022-10-19T07:46:29.102Z,9.00
2022-10-19T07:48:57.680Z,15.10
2022-10-19T07:51:26.515Z,23.23
2022-10-19T07:53:55.069Z,10.83
2022-10-19T07:56:24.860Z,7.57
2022-10-19T07:58:56.610Z,8.23
2022-10-19T08:01:26.725Z,9.73
2022-10-19T08:04:43.396Z,12.83
2022-10-19T08:06:45.098Z,9.90
2022-10-19T08:09:33.327Z,9.80
2022-10-19T08:12:02.000Z,12.17
2022-10-19T08:14:32.124Z,14.20
2022-10-19T08:17:00.717Z,6.40
2022-10-19T08:19:29.325Z,11.47
2022-10-19T08:21:57.738Z,11.13
2022-10-19T08:24:26.199Z,8.00
2022-10-19T08:26:54.789Z,10.27
2022-10-19T08:29:25.533Z,6.47
2022-10-19T08:31:57.615Z,8.30
2022-10-19T08:34:26.303Z,6.50
2022-10-19T08:36:54.707Z,8.50
2022-10-19T08:39:23.166Z,16.03
2022-10-19T08:42:00.210Z,9.43
2022-10-19T08:45:02.045Z,13.33
2022-10-19T08:47:44.075Z,11.10
2022-10-19T08:50:20.950Z,12.90
2022-10-19T08:52:54.999Z,10.50
2022-10-19T08:55:34.018Z,11.67
2022-10-19T08:58:09.431Z,7.43
2022-10-19T09:00:44.593Z,7.73
2022-10-19T09:03:37.430Z,8.57
2022-10-19T09:06:20.526Z,16.20
2022-10-19T09:08:49.887Z,9.27
2022-10-19T09:11:25.932Z,16.43
2022-10-19T09:14:06.154Z,7.13
2022-10-19T09:16:35.929Z,7.80
2022-10-19T09:19:10.971Z,5.13
2022-10-19T09:21:47.615Z,9.67
2022-10-19T09:24:27.998Z,5.63
2022-10-19T09:26:59.690Z,7.43
2022-10-19T09:29:34.036Z,14.70
2022-10-19T09:32:07.070Z,7.97
2022-10-19T09:34:41.980Z,7.80
2022-10-19T09:37:20.060Z,8.47
2022-10-19T09:39:54.806Z,9.50
2022-10-19T09:42:29.112Z,6.47
2022-10-19T09:44:59.662Z,12.63
2022-10-19T09:47:37.241Z,3.13
2022-10-19T09:50:18.251Z,6.00
2022-10-19T09:52:47.916Z,6.20
2022-10-19T09:55:29.968Z,7.73
2022-10-19T09:58:19.687Z,7.37
2022-10-19T10:00:50.580Z,3.73
2022-10-19T10:03:28.100Z,5.07
2022-10-19T10:06:00.789Z,5.10
2022-10-19T10:08:32.871Z,12.23
2022-10-19T10:11:11.536Z,7.80
2022-10-19T10:13:42.819Z,8.73
2022-10-19T10:16:17.659Z,6.27
2022-10-19T10:18:56.037Z,5.80
2022-10-19T10:21:28.879Z,2.77
2022-10-19T10:24:05.384Z,2.30
2022-10-19T10:26:39.722Z,4.23
2022-10-19T10:29:20.452Z,1.73
2022-10-19T10:31:52.013Z,2.67
2022-10-19T10:34:45.461Z,4.83
2022-10-19T10:37:23.270Z,1.37
2022-10-19T10:39:55.809Z,6.80
2022-10-19T10:42:31.427Z,5.83
2022-10-19T10:45:00.871Z,3.80
2022-10-19T10:47:30.658Z,5.20
2022-10-19T10:50:02.902Z,4.07
2022-10-19T10:52:33.742Z,26.17
2022-10-19T10:55:15.324Z,4.53
2022-10-19T10:57:46.897Z,1.80
2022-10-19T11:00:18.774Z,4.93
2022-10-19T11:02:53.589Z,2.50
2022-10-19T11:05:26.631Z,2.00
2022-10-19T11:08:02.044Z,7.60
2022-10-19T11:10:36.490Z,2.03
2022-10-19T11:13:11.900Z,1.53
2022-10-19T11:15:52.483Z,0.80
2022-10-19T11:18:26.332Z,2.20
2022-10-19T11:21:02.249Z,3.23
2022-10-19T11:23:49.180Z,1.20
2022-10-19T11:26:33.810Z,4.10
2022-10-19T11:29:43.866Z,0.90
2022-10-19T11:32:33.545Z,2.83
2022-10-19T11:35:21.697Z,0.90
2022-10-19T11:38:18.840Z,5.23
2022-10-19T11:41:16.848Z,3.13
2022-10-19T11:43:58.312Z,1.57
2022-10-19T11:46:33.974Z,2.70
2022-10-19T11:49:21.177Z,2.70
2022-10-19T11:51:57.661Z,1.50
2022-10-19T11:54:39.843Z,2.10
2022-10-19T11:57:14.452Z,2.53
2022-10-19T12:00:00.294Z,2.60
2022-10-19T12:03:34.597Z,3.20
2022-10-19T12:06:11.844Z,3.70
2022-10-19T12:08:58.585Z,2.67
2022-10-19T12:11:35.484Z,1.97
2022-10-19T12:14:10.526Z,11.43
2022-10-19T12:16:43.419Z,4.40
2022-10-19T12:19:18.707Z,3.53
2022-10-19T12:21:48.697Z,1.63
2022-10-19T12:24:21.203Z,2.10
2022-10-19T12:26:51.691Z,4.77
2022-10-19T12:29:24.839Z,5.50
2022-10-19T12:31:55.143Z,1.43
2022-10-19T12:34:34.603Z,1.33
2022-10-19T12:37:11.555Z,1.50
2022-10-19T12:39:47.060Z,1.80
2022-10-19T12:42:24.323Z,5.07
2022-10-19T12:45:25.210Z,2.73
2022-10-19T12:48:20.436Z,2.83
2022-10-19T12:51:15.098Z,5.73
2022-10-19T12:53:47.775Z,5.40
2022-10-19T12:56:25.699Z,1.73
2022-10-19T12:58:56.860Z,2.60
2022-10-19T13:01:30.280Z,1.20
2022-10-19T13:04:11.345Z,1.73
2022-10-19T13:06:42.738Z,3.33
2022-10-19T13:09:24.592Z,5.43
2022-10-19T13:12:43.224Z,1.77
2022-10-19T13:15:57.390Z,4.40
2022-10-19T13:19:06.037Z,5.13
2022-10-19T13:22:07.928Z,2.07
2022-10-19T13:24:38.529Z,8.33
2022-10-19T13:27:28.674Z,1.83
2022-10-19T13:29:57.451Z,4.20
2022-10-19T13:32:41.389Z,1.20
2022-10-19T13:35:32.558Z,1.30
2022-10-19T13:38:31.454Z,1.93
2022-10-19T13:41:22.742Z,3.33
2022-10-19T13:43:56.616Z,1.97
2022-10-19T13:46:43.512Z,3.57
2022-10-19T13:49:37.876Z,3.50
2022-10-19T13:52:34.911Z,1.30
2022-10-19T13:55:51.313Z,1.07
2022-10-19T13:58:35.286Z,3.10
2022-10-19T14:01:18.288Z,2.27
2022-10-19T14:04:06.499Z,2.50
2022-10-19T14:06:43.493Z,7.93
2022-10-19T14:09:36.787Z,2.00
2022-10-19T14:12:10.130Z,1.47
2022-10-19T14:14:45.034Z,1.40
2022-10-19T14:19:50.543Z,1.50
2022-10-19T14:22:22.798Z,1.67
2022-10-19T14:24:51.658Z,1.53
2022-10-19T14:27:24.517Z,2.27
2022-10-19T14:29:55.570Z,3.73
2022-10-19T14:32:28.286Z,4.50
2022-10-19T14:35:19.049Z,4.87
2022-10-19T14:37:47.699Z,4.70
2022-10-19T14:40:28.195Z,1.77
2022-10-19T14:42:58.071Z,2.60
2022-10-19T14:45:29.936Z,3.03
2022-10-19T14:48:01.610Z,3.87
2022-10-19T14:50:42.432Z,0.90
2022-10-19T14:53:34.514Z,1.73
2022-10-19T14:56:08.644Z,4.70
2022-10-19T14:58:42.514Z,1.83
2022-10-19T15:01:13.816Z,4.47
2022-10-19T15:03:44.530Z,1.47
2022-10-19T15:06:20.001Z,4.87
2022-10-19T15:08:51.957Z,1.67
2022-10-19T15:11:27.823Z,2.40
2022-10-19T15:14:03.729Z,2.60
2022-10-19T15:16:43.176Z,7.33
2022-10-19T15:19:20.875Z,5.77
2022-10-19T15:22:07.133Z,3.03
2022-10-19T15:24:36.147Z,3.33
2022-10-19T15:27:12.249Z,3.80
2022-10-19T15:29:41.600Z,10.57
2022-10-19T15:32:21.539Z,14.87
2022-10-19T15:34:50.138Z,10.27
2022-10-19T15:37:21.864Z,2.53
2022-10-19T15:39:51.161Z,2.63
2022-10-19T15:42:38.784Z,13.50
2022-10-19T15:45:36.194Z,12.40
2022-10-19T15:48:26.642Z,9.43
2022-10-19T15:50:56.204Z,8.63
2022-10-19T15:53:26.076Z,8.97
2022-10-19T15:55:54.692Z,10.63
2022-10-19T15:58:23.431Z,5.03
2022-10-19T16:00:53.337Z,10.90
2022-10-19T16:03:23.143Z,8.27
2022-10-19T16:05:51.692Z,18.90
2022-10-19T16:08:20.174Z,8.17
2022-10-19T16:10:48.692Z,13.13
2022-10-19T16:13:17.196Z,9.03
2022-10-19T16:15:50.006Z,15.50
2022-10-19T16:18:26.695Z,17.97
2022-10-19T16:20:55.293Z,7.97
2022-10-19T16:23:24.233Z,10.73
2022-10-19T16:25:54.179Z,6.47
2022-10-19T16:28:25.482Z,6.43
2022-10-19T16:30:55.036Z,15.07
2022-10-19T16:33:27.152Z,6.50
2022-10-19T16:35:55.852Z,10.00
2022-10-19T16:38:29.861Z,7.23
2022-10-19T16:41:11.512Z,6.10
2022-10-19T16:43:47.082Z,8.27
2022-10-19T16:46:17.652Z,4.70
2022-10-19T16:49:14.224Z,4.10
2022-10-19T16:51:43.403Z,8.53
2022-10-19T16:54:13.203Z,5.53
2022-10-19T16:56:46.004Z,5.97
2022-10-19T16:59:17.483Z,13.77
2022-10-19T17:01:47.191Z,5.40
2022-10-19T17:04:18.453Z,2.37
2022-10-19T17:06:47.038Z,7.60
2022-10-19T17:09:40.689Z,3.07
2022-10-19T17:12:05.934Z,2.90
2022-10-19T17:14:35.407Z,4.83
2022-10-19T17:17:04.293Z,7.23
2022-10-19T17:19:34.304Z,10.30
2022-10-19T17:22:03.733Z,2.20
2022-10-19T17:24:33.521Z,4.43
2022-10-19T17:27:03.886Z,2.20
2022-10-19T17:29:32.491Z,3.83
2022-10-19T17:32:01.378Z,3.10
2022-10-19T17:34:31.502Z,8.33
2022-10-19T17:37:02.417Z,8.40
2022-10-19T17:39:31.303Z,5.23
2022-10-19T17:42:02.026Z,2.83
2022-10-19T17:44:31.861Z,6.77
2022-10-19T17:47:01.525Z,6.23
2022-10-19T17:49:30.483Z,5.40
2022-10-19T17:52:00.957Z,4.03
2022-10-19T17:54:48.600Z,7.93
2022-10-19T17:57:28.129Z,2.27
2022-10-19T18:02:50.325Z,5.13
2022-10-19T18:05:23.430Z,4.17
2022-10-19T18:07:58.957Z,2.27
2022-10-19T18:10:28.569Z,4.83
2022-10-19T18:12:58.131Z,2.50
2022-10-19T18:15:27.810Z,7.87
2022-10-19T18:17:58.517Z,8.50
2022-10-19T18:20:27.991Z,2.50
2022-10-19T18:22:59.205Z,5.13
2022-10-19T18:25:49.312Z,5.07
2022-10-19T18:28:16.476Z,5.50
2022-10-19T18:30:57.011Z,17.53
2022-10-19T18:33:29.043Z,20.83
2022-10-19T18:36:00.684Z,11.67
2022-10-19T18:38:30.567Z,29.77
2022-10-19T18:41:03.213Z,17.00
2022-10-19T18:43:32.762Z,9.93
2022-10-19T18:46:05.815Z,12.73
2022-10-19T18:48:38.706Z,5.20
2022-10-19T18:51:09.494Z,10.10
2022-10-19T18:53:39.646Z,6.10
2022-10-19T18:56:10.614Z,3.47
2022-10-19T18:58:40.275Z,6.43
2022-10-19T19:01:10.116Z,3.33
2022-10-19T19:03:39.962Z,2.80
2022-10-19T19:06:13.435Z,7.60
2022-10-19T19:08:45.376Z,7.47
2022-10-19T19:11:15.548Z,16.00
2022-10-19T19:13:48.448Z,4.70
2022-10-19T19:16:17.280Z,2.57
2022-10-19T19:18:45.986Z,2.90
2022-10-19T19:21:17.451Z,2.50
2022-10-19T19:23:47.821Z,8.60
2022-10-19T19:26:17.534Z,4.27
2022-10-19T19:28:50.649Z,9.90
2022-10-19T19:31:20.553Z,4.27
2022-10-19T19:33:49.850Z,4.73
2022-10-19T19:36:19.876Z,3.30
2022-10-19T19:38:51.721Z,12.03
2022-10-19T19:41:20.790Z,5.87
2022-10-19T19:43:49.488Z,7.47
2022-10-19T19:46:20.486Z,3.00
2022-10-19T19:48:49.900Z,3.67
2022-10-19T19:51:21.285Z,2.77
2022-10-19T19:53:51.356Z,14.77
2022-10-19T19:56:20.736Z,4.23
2022-10-19T19:58:49.474Z,2.70
2022-10-19T20:01:20.466Z,9.73
2022-10-19T20:03:49.705Z,5.90
2022-10-19T20:06:23.538Z,3.77
2022-10-19T20:08:56.698Z,7.03
2022-10-19T20:11:27.639Z,13.03
2022-10-19T20:13:56.480Z,7.60
2022-10-19T20:16:29.184Z,4.30
2022-10-19T20:19:01.046Z,5.73
2022-10-19T20:21:31.561Z,5.07
2022-10-19T20:24:01.892Z,9.03
2022-10-19T20:26:31.538Z,4.50
2022-10-19T20:29:02.851Z,8.20
2022-10-19T20:31:33.506Z,10.50
2022-10-19T20:34:02.328Z,9.73
2022-10-19T20:36:43.909Z,16.87
2022-10-19T20:39:14.224Z,7.97
2022-10-19T20:41:42.894Z,6.23
2022-10-19T20:44:11.564Z,5.83
2022-10-19T20:46:40.251Z,8.63
2022-10-19T20:49:08.807Z,5.60
2022-10-19T20:51:38.470Z,6.60
2022-10-19T20:54:09.212Z,9.13
2022-10-19T20:56:40.782Z,12.57
2022-10-19T20:59:12.303Z,6.40
2022-10-19T21:01:43.166Z,5.67
2022-10-19T21:04:13.776Z,5.03
2022-10-19T21:06:44.407Z,5.57
2022-10-19T21:09:14.767Z,9.47
2022-10-19T21:11:47.340Z,6.07
2022-10-19T21:14:17.727Z,8.13
2022-10-19T21:16:46.412Z,8.80
2022-10-19T21:19:16.959Z,5.90
2022-10-19T21:21:47.473Z,14.47
2022-10-19T21:24:18.782Z,10.10
2022-10-19T21:26:49.261Z,8.20
2022-10-19T21:29:18.512Z,12.83
2022-10-19T21:31:49.294Z,6.83
2022-10-19T21:34:20.111Z,24.67
2022-10-19T21:36:49.125Z,15.53
2022-10-19T21:39:18.290Z,26.10
2022-10-19T21:41:49.091Z,12.83
2022-10-19T21:44:18.764Z,7.30
2022-10-19T21:46:49.710Z,4.47
2022-10-19T21:49:19.266Z,6.47
2022-10-19T21:51:50.134Z,6.97
2022-10-19T21:54:20.619Z,7.27
2022-10-19T21:56:50.707Z,14.53
2022-10-19T21:59:19.994Z,11.30
2022-10-19T22:01:48.565Z,18.70
2022-10-19T22:04:19.048Z,16.10
2022-10-19T22:06:47.753Z,7.23
2022-10-19T22:09:18.976Z,6.00
2022-10-19T22:11:49.613Z,8.60
2022-10-19T22:14:18.884Z,10.30
2022-10-19T22:16:47.496Z,7.77
2022-10-19T22:19:16.043Z,9.77
2022-10-19T22:21:44.623Z,17.70
2022-10-19T22:24:15.355Z,10.70
2022-10-19T22:26:46.582Z,10.30
2022-10-19T22:29:16.488Z,8.47
2022-10-19T22:31:45.128Z,10.67
2022-10-19T22:34:16.211Z,13.70
2022-10-19T22:36:45.241Z,11.83
2022-10-19T22:39:14.290Z,13.97
2022-10-19T22:41:42.837Z,10.47
2022-10-19T22:44:11.352Z,13.70
2022-10-19T22:46:41.192Z,22.73
2022-10-19T22:49:10.105Z,10.77
2022-10-19T22:51:38.623Z,12.27
2022-10-19T22:54:07.211Z,13.60
2022-10-19T22:56:35.723Z,12.20
2022-10-19T22:59:06.021Z,9.53
2022-10-19T23:01:34.829Z,12.80
2022-10-19T23:04:04.917Z,10.30
2022-10-19T23:06:33.448Z,8.43
2022-10-19T23:09:01.972Z,11.80
2022-10-19T23:11:30.487Z,10.30
2022-10-19T23:13:58.938Z,9.33
2022-10-19T23:18:57.027Z,7.23
2022-10-19T23:21:26.854Z,13.40
2022-10-19T23:23:55.596Z,14.80
2022-10-19T23:26:24.796Z,9.63
2022-10-19T23:28:53.597Z,7.20
2022-10-19T23:31:24.792Z,8.63
2022-10-19T23:33:53.956Z,9.30
2022-10-19T23:36:24.389Z,9.13
2022-10-19T23:38:55.228Z,11.10
2022-10-19T23:41:24.521Z,10.97
2022-10-19T23:43:52.947Z,8.67
2022-10-19T23:46:21.357Z,10.23
2022-10-19T23:48:49.863Z,9.53
2022-10-19T23:51:20.466Z,11.50
2022-10-19T23:53:51.256Z,16.23
2022-10-19T23:56:22.301Z,12.93
2022-10-19T23:58:51.247Z,7.93
